• Join FlightAware (Why Join?)
  • Login
  • US Flag 
01:03AM EDT


 

Airport Tracker/Info


-or-


 

Live Flight TrackerFlight Track Log ✈ N92EJ ✈ 22-Oct-2013 ✈ KCOS - KFSM

Flight Track Log - Related Links

Times and Time Zones

All times are in EDT time to prevent confusion due to time zone crossing. See the N92EJ flight status page for this flight to view local times or setup timezone preferences in your user account.

Time Position Orientation Groundspeed Altitude Reporting Facility
EDT Latitude Longitude Course Direction KTS MPH feet Rate Location/Type
11:58AM 38.7264 -104.5758 111° Southeast 170 196 13,500  Level Denver Center
11:59AM 38.7094 -104.5108 108° East 171 197 13,400 -120 Descending Denver Center
12:00PM 38.6931 -104.4556 111° Southeast 172 198 13,300 -120 Descending Denver Center
12:01PM 38.6747 -104.3908 110° East 173 199 13,200 -120 Descending Denver Center
12:02PM 38.6990 -104.3194 111° Southeast  Level Estimated
12:02PM 38.6606 -104.3339 108° East 175 201 13,100  Level Denver Center
12:03PM 38.6800 -104.2565 111° Southeast  Level FlightAware Approximate
12:03PM 38.6411 -104.2686 111° Southeast 175 201 12,600  Level Denver Center
12:04PM 38.6253 -104.2097 109° East 180 207 12,200 -420 Descending Denver Center
12:05PM 38.6103 -104.1522 108° East 179 206 11,800 -360 Descending Denver Center
12:06PM 38.5917 -104.0822 109° East 185 213 11,500 -300 Descending Denver Center
12:08PM 38.5911 -103.9656 111° Southeast  Level FlightAware Approximate
12:15PM 38.4570 -103.5266 111° Southeast  Level FlightAware Approximate
12:16PM 38.4377 -103.4641 111° Southeast  Level FlightAware Approximate
12:17PM 38.4194 -103.4010 110° East  Level FlightAware Approximate
12:18PM 38.4013 -103.3379 110° East  Level FlightAware Approximate
12:19PM 38.3832 -103.2748 110° East  Level FlightAware Approximate
12:20PM 38.3651 -103.2117 110° East  Level FlightAware Approximate
12:21PM 38.3470 -103.1486 110° East  Level FlightAware Approximate
12:22PM 38.3288 -103.0856 110° East  Level FlightAware Approximate
12:23PM 38.3106 -103.0226 110° East  Level FlightAware Approximate
12:24PM 38.2923 -102.9597 110° East  Level FlightAware Approximate
12:25PM 38.2741 -102.8967 110° East  Level FlightAware Approximate
12:26PM 38.2557 -102.8338 110° East  Level FlightAware Approximate
12:27PM 38.2374 -102.7710 110° East  Level FlightAware Approximate
12:28PM 38.2190 -102.7082 110° East  Level FlightAware Approximate
12:29PM 38.2006 -102.6453 110° East  Level FlightAware Approximate
12:30PM 38.1821 -102.5826 110° East  Level FlightAware Approximate
12:31PM 38.1637 -102.5199 111° Southeast  Level FlightAware Approximate
12:32PM 38.1451 -102.4572 111° Southeast  Level FlightAware Approximate
12:33PM 38.1266 -102.3945 111° Southeast  Level FlightAware Approximate
12:34PM 38.1080 -102.3318 111° Southeast  Level FlightAware Approximate
12:35PM 38.0894 -102.2692 111° Southeast  Level FlightAware Approximate
12:36PM 38.0707 -102.2066 111° Southeast  Level FlightAware Approximate
12:37PM 38.0521 -102.1441 111° Southeast  Level FlightAware Approximate
12:38PM 38.0333 -102.0816 111° Southeast  Level FlightAware Approximate
12:39PM 38.0146 -102.0191 111° Southeast  Level FlightAware Approximate
12:40PM 37.9958 -101.9567 111° Southeast  Level FlightAware Approximate
12:41PM 37.9770 -101.8942 111° Southeast  Level FlightAware Approximate
12:42PM 37.9581 -101.8319 111° Southeast  Level FlightAware Approximate
12:43PM 37.9393 -101.7695 111° Southeast  Level FlightAware Approximate
12:44PM 37.9193 -101.7077 113° Southeast  Level FlightAware Approximate
12:45PM 37.8989 -101.6462 113° Southeast  Level FlightAware Approximate
12:46PM 37.8784 -101.5847 113° Southeast  Level FlightAware Approximate
12:47PM 37.8579 -101.5233 113° Southeast  Level FlightAware Approximate
12:48PM 37.8373 -101.4619 113° Southeast  Level FlightAware Approximate
12:49PM 37.8186 -101.3996 110° East  Level FlightAware Approximate
12:50PM 37.8002 -101.3371 110° East  Level FlightAware Approximate
12:51PM 37.7818 -101.2746 110° East  Level FlightAware Approximate
12:52PM 37.7635 -101.2122 110° East  Level FlightAware Approximate
12:53PM 37.7448 -101.1499 111° Southeast  Level FlightAware Approximate
12:54PM 37.7255 -101.0879 111° Southeast  Level FlightAware Approximate
12:55PM 37.7061 -101.0260 112° Southeast  Level FlightAware Approximate
12:56PM 37.6868 -100.9641 112° Southeast  Level FlightAware Approximate
12:57PM 37.6674 -100.9022 112° Southeast  Level FlightAware Approximate
12:58PM 37.6479 -100.8404 112° Southeast  Level FlightAware Approximate
12:59PM 37.6284 -100.7786 112° Southeast  Level FlightAware Approximate
01:00PM 37.6090 -100.7168 112° Southeast  Level FlightAware Approximate
01:01PM 37.5894 -100.6551 112° Southeast  Level FlightAware Approximate
01:02PM 37.5699 -100.5934 112° Southeast  Level FlightAware Approximate
01:03PM 37.5496 -100.5321 113° Southeast  Level FlightAware Approximate
01:04PM 37.5293 -100.4708 113° Southeast  Level FlightAware Approximate
01:05PM 37.5089 -100.4096 113° Southeast  Level FlightAware Approximate
01:06PM 37.4884 -100.3484 113° Southeast  Level FlightAware Approximate
01:07PM 37.4679 -100.2872 113° Southeast  Level FlightAware Approximate
01:08PM 37.4474 -100.2261 113° Southeast  Level FlightAware Approximate
01:09PM 37.4269 -100.1650 113° Southeast  Level FlightAware Approximate
01:10PM 37.4063 -100.1040 113° Southeast  Level FlightAware Approximate
01:11PM 37.3857 -100.0430 113° Southeast  Level FlightAware Approximate
01:12PM 37.3651 -99.9820 113° Southeast  Level FlightAware Approximate
01:13PM 37.3445 -99.9211 113° Southeast  Level FlightAware Approximate
01:14PM 37.3238 -99.8601 113° Southeast  Level FlightAware Approximate
01:15PM 37.3030 -99.7993 113° Southeast  Level FlightAware Approximate
01:16PM 37.2823 -99.7384 113° Southeast  Level FlightAware Approximate
01:17PM 37.2615 -99.6776 113° Southeast  Level FlightAware Approximate
01:18PM 37.2407 -99.6168 113° Southeast  Level FlightAware Approximate
01:19PM 37.2198 -99.5561 113° Southeast  Level FlightAware Approximate
01:20PM 37.1990 -99.4954 113° Southeast  Level FlightAware Approximate
01:21PM 37.1786 -99.4344 111° Southeast  Level FlightAware Approximate
01:22PM 37.1597 -99.3727 111° Southeast  Level FlightAware Approximate
01:23PM 37.1408 -99.3110 111° Southeast  Level FlightAware Approximate
01:24PM 37.1219 -99.2494 111° Southeast  Level FlightAware Approximate
01:25PM 37.1029 -99.1878 111° Southeast  Level FlightAware Approximate
01:26PM 37.0839 -99.1262 111° Southeast  Level FlightAware Approximate
01:27PM 37.0649 -99.0646 111° Southeast  Level FlightAware Approximate
01:28PM 37.0454 -99.0033 113° Southeast  Level FlightAware Approximate
01:29PM 37.0246 -98.9427 113° Southeast  Level FlightAware Approximate
01:30PM 37.0037 -98.8822 113° Southeast  Level FlightAware Approximate
01:31PM 36.9828 -98.8216 113° Southeast  Level FlightAware Approximate
01:32PM 36.9618 -98.7612 113° Southeast  Level FlightAware Approximate
01:33PM 36.9408 -98.7007 113° Southeast  Level FlightAware Approximate
01:34PM 36.9198 -98.6403 113° Southeast  Level FlightAware Approximate
01:35PM 36.8988 -98.5799 113° Southeast  Level FlightAware Approximate
01:36PM 36.8786 -98.5191 113° Southeast  Level FlightAware Approximate
01:37PM 36.8584 -98.4583 113° Southeast  Level FlightAware Approximate
01:38PM 36.8381 -98.3976 113° Southeast  Level FlightAware Approximate
01:39PM 36.8167 -98.3374 114° Southeast  Level FlightAware Approximate
01:40PM 36.7951 -98.2775 114° Southeast  Level FlightAware Approximate
01:41PM 36.7734 -98.2175 114° Southeast  Level FlightAware Approximate
01:42PM 36.7516 -98.1577 114° Southeast  Level FlightAware Approximate
01:43PM 36.7299 -98.0978 114° Southeast  Level FlightAware Approximate
01:44PM 36.7080 -98.0380 114° Southeast  Level FlightAware Approximate
01:45PM 36.6862 -97.9782 114° Southeast  Level FlightAware Approximate
01:46PM 36.6644 -97.9185 115° Southeast  Level FlightAware Approximate
01:47PM 36.6425 -97.8587 115° Southeast  Level FlightAware Approximate
01:48PM 36.6205 -97.7991 115° Southeast  Level FlightAware Approximate
01:49PM 36.5986 -97.7394 115° Southeast  Level FlightAware Approximate
01:50PM 36.5766 -97.6798 115° Southeast  Level FlightAware Approximate
01:51PM 36.5546 -97.6202 115° Southeast  Level FlightAware Approximate
01:52PM 36.5326 -97.5607 115° Southeast  Level FlightAware Approximate
01:53PM 36.5105 -97.5012 115° Southeast  Level FlightAware Approximate
01:54PM 36.4884 -97.4417 115° Southeast  Level FlightAware Approximate
01:55PM 36.4663 -97.3823 114° Southeast  Level FlightAware Approximate
01:56PM 36.4450 -97.3224 114° Southeast  Level FlightAware Approximate
01:57PM 36.4237 -97.2625 114° Southeast  Level FlightAware Approximate
01:58PM 36.4023 -97.2027 114° Southeast  Level FlightAware Approximate
01:59PM 36.3810 -97.1429 114° Southeast  Level FlightAware Approximate
02:00PM 36.3595 -97.0832 114° Southeast  Level FlightAware Approximate
02:01PM 36.3381 -97.0234 114° Southeast  Level FlightAware Approximate
02:02PM 36.3166 -96.9637 114° Southeast  Level FlightAware Approximate
02:03PM 36.2951 -96.9041 114° Southeast  Level FlightAware Approximate
02:04PM 36.2736 -96.8444 114° Southeast  Level FlightAware Approximate
02:05PM 36.2520 -96.7848 114° Southeast  Level FlightAware Approximate
02:06PM 36.2304 -96.7253 114° Southeast  Level FlightAware Approximate
02:07PM 36.2088 -96.6657 114° Southeast  Level FlightAware Approximate
02:08PM 36.1872 -96.6062 114° Southeast  Level FlightAware Approximate
02:09PM 36.1654 -96.5468 115° Southeast  Level FlightAware Approximate
02:10PM 36.1428 -96.4879 115° Southeast  Level FlightAware Approximate
02:11PM 36.1201 -96.4290 115° Southeast  Level FlightAware Approximate
02:12PM 36.0974 -96.3702 116° Southeast  Level FlightAware Approximate
02:13PM 36.0747 -96.3114 116° Southeast  Level FlightAware Approximate
02:14PM 36.0520 -96.2526 116° Southeast  Level FlightAware Approximate
02:15PM 36.0292 -96.1939 116° Southeast  Level FlightAware Approximate
02:16PM 36.0064 -96.1352 116° Southeast  Level FlightAware Approximate
02:17PM 35.9835 -96.0766 116° Southeast  Level FlightAware Approximate
02:18PM 35.9609 -96.0178 115° Southeast  Level FlightAware Approximate
02:19PM 35.9389 -95.9587 115° Southeast  Level FlightAware Approximate
02:20PM 35.9168 -95.8996 115° Southeast  Level FlightAware Approximate
02:21PM 35.8948 -95.8406 115° Southeast  Level FlightAware Approximate
02:22PM 35.8727 -95.7816 115° Southeast  Level FlightAware Approximate
02:23PM 35.8506 -95.7226 115° Southeast  Level FlightAware Approximate
02:24PM 35.8284 -95.6637 115° Southeast  Level FlightAware Approximate
02:25PM 35.8062 -95.6048 115° Southeast  Level FlightAware Approximate
02:26PM 35.7840 -95.5459 115° Southeast  Level FlightAware Approximate
02:27PM 35.7667 -95.4857 90° East  Level FlightAware Approximate
02:28PM 35.7454 -95.4265 115° Southeast  Level FlightAware Approximate
02:29PM 35.7234 -95.3676 115° Southeast  Level FlightAware Approximate
02:30PM 35.7013 -95.3087 115° Southeast  Level FlightAware Approximate
02:31PM 35.6792 -95.2499 115° Southeast  Level FlightAware Approximate
02:32PM 35.6573 -95.2000 180° South  Level FlightAware Approximate
02:33PM 35.6315 -95.1490 114° Southeast  Level FlightAware Approximate
02:34PM 35.6100 -95.0898 114° Southeast  Level FlightAware Approximate
02:35PM 35.5885 -95.0307 114° Southeast  Level FlightAware Approximate
02:36PM 35.5716 -94.9706 116° Southeast  Level FlightAware Approximate
02:37PM 35.5484 -94.9125 116° Southeast  Level FlightAware Approximate
02:38PM 35.5251 -94.8545 116° Southeast  Level FlightAware Approximate
02:39PM 35.5024 -94.7961 115° Southeast  Level FlightAware Approximate
02:40PM 35.4800 -94.7375 115° Southeast  Level FlightAware Approximate
02:41PM 35.4576 -94.6790 115° Southeast  Level FlightAware Approximate
02:42PM 35.4351 -94.6206 115° Southeast  Level FlightAware Approximate
02:43PM 35.4126 -94.5621 115° Southeast  Level FlightAware Approximate
02:44PM 35.3901 -94.5037 115° Southeast  Level FlightAware Approximate
02:45PM 35.3675 -94.4453 115° Southeast  Level FlightAware Approximate
02:46PM 35.3439 -94.3877 121° Southeast  Level FlightAware Approximate
02:47PM 35.3333 -94.3667 121° Southeast  Level FlightAware Approximate
02:48PM 35.3366 -94.3674 121° Southeast  Level Estimated
02:49PM 35.3333 -94.3667 121° Southeast  Level FlightAware Approximate
02:50PM 35.3366 -94.3674 121° Southeast  Level Estimated
02:51PM 35.3333 -94.3667 121° Southeast  Level FlightAware Approximate
02:52PM 35.3366 -94.3674 121° Southeast  Level Estimated
02:53PM 35.3333 -94.3667 121° Southeast  Level FlightAware Approximate
02:54PM 35.3366 -94.3674 121° Southeast  Level Estimated
02:55PM 35.3333 -94.3667 121° Southeast  Level FlightAware Approximate
02:56PM 35.3366 -94.3674 121° Southeast  Level Estimated
02:57PM 35.3333 -94.3667 121° Southeast  Level FlightAware Approximate
02:58PM 35.3366 -94.3674 121° Southeast  Level Estimated
02:59PM 35.3333 -94.3667 121° Southeast  Level FlightAware Approximate
03:00PM 35.3366 -94.3674 121° Southeast  Level Estimated
03:01PM 35.3333 -94.3667 121° Southeast  Level FlightAware Approximate